St. Elmo — WDG2405 — position and weather

sailwx.info

Track history (hours):
 
Tides and Currents Weather Stations Pressure Air Temp Water Temp Dewpoint Dewpoint Depression Visibility Wind Speed Wind Dir Waves Ship Positions

St. Elmo

Owner: Marquette Transportation Company Gulf-Inland, LLC, Jefferson, LA. More information available from US FCC via Universal Licensing System and Coast Guard Vessel Documentation Center.

Last reported at 2016-Aug-29 22:33 UTC. Time now 2016-Sep-01 01:59 UTC.
Position N 29°35' W 094°56'.

; draft 3.2 m.

MMSI: 367515330.

Date/timePositionNaut miles runAvg speedWind from/ knotsBaromVisibWave heightAir tempDewpointWater temp
2016-Aug-29 22:33N 29°35' W 094°56'7 6.9
2016-Aug-29 21:33N 29°41' W 094°59'5 1.3
2016-Aug-29 17:33N 29°44' W 095°04'3 2.8
2016-Aug-29 16:31N 29°42' W 095°01'3 3.1
2016-Aug-29 15:33N 29°40' W 094°59'3 3.5
2016-Aug-29 14:33N 29°37' W 094°58'3 3.3
2016-Aug-29 13:33N 29°37' W 095°01'0 0.1
2016-Aug-29 12:34N 29°37' W 095°02'0 0.0
2016-Aug-29 11:34N 29°37' W 095°02'0 0.0
2016-Aug-29 10:24N 29°37' W 095°02'0 0.0
2016-Aug-29 09:34N 29°37' W 095°02'0 0.0
2016-Aug-29 08:31N 29°37' W 095°02'0 0.0
2016-Aug-29 07:34N 29°37' W 095°02'0 0.0
2016-Aug-29 06:32N 29°37' W 095°02'0 0.0
2016-Aug-29 05:33N 29°37' W 095°02'0 0.0
2016-Aug-29 04:31N 29°37' W 095°02'0 0.0
2016-Aug-29 02:27N 29°37' W 095°02'0 0.0
2016-Aug-29 01:32N 29°37' W 095°02'0 0.0
2016-Aug-29 00:33N 29°37' W 095°02'0 0.0
2016-Aug-28 23:30N 29°37' W 095°02'0 0.0
2016-Aug-28 22:33N 29°37' W 095°02'0 0.1
2016-Aug-28 21:33N 29°37' W 095°01'2 2.1
2016-Aug-28 20:34N 29°37' W 094°59'4 4.0
2016-Aug-28 19:34N 29°41' W 094°59'5 5.0
2016-Aug-28 18:33N 29°44' W 095°03'3 0.9
2016-Aug-28 15:33N 29°46' W 095°05'0 0.0
2016-Aug-28 14:30N 29°46' W 095°05'0 0.0
2016-Aug-28 13:32N 29°46' W 095°05'  
2016-Aug-23 20:11N 29°46' W 095°05'3 4.2
2016-Aug-23 19:29N 29°44' W 095°03'4 4.6
2016-Aug-23 18:33N 29°41' W 094°59'5 5.3
2016-Aug-23 17:33N 29°36' W 094°57'5 5.1
2016-Aug-23 16:33N 29°32' W 094°54'  
2016-Aug-20 03:33N 29°35' W 094°56'6 6.0
2016-Aug-20 02:33N 29°41' W 094°59'6 5.6
2016-Aug-20 01:33N 29°45' W 095°04'  
Track history (hours):
 
Tides and Currents Weather Stations Pressure Air Temp Water Temp Dewpoint Dewpoint Depression Visibility Wind Speed Wind Dir Waves Ship Positions

St. Elmo

Owner: Marquette Transportation Company Gulf-Inland, LLC, Jefferson, LA. More information available from US FCC via Universal Licensing System and Coast Guard Vessel Documentation Center.

Last reported at 2016-Aug-29 22:33 UTC. Time now 2016-Sep-01 01:59 UTC.
Position N 29°35' W 094°56'.

; draft 3.2 m.

MMSI: 367515330.

Date/timePositionNaut miles runAvg speedWind from/ knotsBaromVisibWave heightAir tempDewpointWater temp
2016-Aug-29 22:33N 29°35' W 094°56'7 6.9
2016-Aug-29 21:33N 29°41' W 094°59'5 1.3
2016-Aug-29 17:33N 29°44' W 095°04'3 2.8
2016-Aug-29 16:31N 29°42' W 095°01'3 3.1
2016-Aug-29 15:33N 29°40' W 094°59'3 3.5
2016-Aug-29 14:33N 29°37' W 094°58'3 3.3
2016-Aug-29 13:33N 29°37' W 095°01'0 0.1
2016-Aug-29 12:34N 29°37' W 095°02'0 0.0
2016-Aug-29 11:34N 29°37' W 095°02'0 0.0
2016-Aug-29 10:24N 29°37' W 095°02'0 0.0
2016-Aug-29 09:34N 29°37' W 095°02'0 0.0
2016-Aug-29 08:31N 29°37' W 095°02'0 0.0
2016-Aug-29 07:34N 29°37' W 095°02'0 0.0
2016-Aug-29 06:32N 29°37' W 095°02'0 0.0
2016-Aug-29 05:33N 29°37' W 095°02'0 0.0
2016-Aug-29 04:31N 29°37' W 095°02'0 0.0
2016-Aug-29 02:27N 29°37' W 095°02'0 0.0
2016-Aug-29 01:32N 29°37' W 095°02'0 0.0
2016-Aug-29 00:33N 29°37' W 095°02'0 0.0
2016-Aug-28 23:30N 29°37' W 095°02'0 0.0
2016-Aug-28 22:33N 29°37' W 095°02'0 0.1
2016-Aug-28 21:33N 29°37' W 095°01'2 2.1
2016-Aug-28 20:34N 29°37' W 094°59'4 4.0
2016-Aug-28 19:34N 29°41' W 094°59'5 5.0
2016-Aug-28 18:33N 29°44' W 095°03'3 0.9
2016-Aug-28 15:33N 29°46' W 095°05'0 0.0
2016-Aug-28 14:30N 29°46' W 095°05'0 0.0
2016-Aug-28 13:32N 29°46' W 095°05'  
2016-Aug-23 20:11N 29°46' W 095°05'3 4.2
2016-Aug-23 19:29N 29°44' W 095°03'4 4.6
2016-Aug-23 18:33N 29°41' W 094°59'5 5.3
2016-Aug-23 17:33N 29°36' W 094°57'5 5.1
2016-Aug-23 16:33N 29°32' W 094°54'  
2016-Aug-20 03:33N 29°35' W 094°56'6 6.0
2016-Aug-20 02:33N 29°41' W 094°59'6 5.6
2016-Aug-20 01:33N 29°45' W 095°04'  

Dump ship's entire track history